createdAt,value
2023-04-21T00:00:21.375Z,88.70
2023-04-21T00:02:50.128Z,88.80
2023-04-21T00:05:18.728Z,88.64
2023-04-21T00:07:47.330Z,87.93
2023-04-21T00:10:15.445Z,87.67
2023-04-21T00:12:43.455Z,88.07
2023-04-21T00:15:12.775Z,88.05
2023-04-21T00:17:41.840Z,87.96
2023-04-21T00:20:14.513Z,87.03
2023-04-21T00:22:42.648Z,86.61
2023-04-21T00:25:10.764Z,86.45
2023-04-21T00:27:38.839Z,86.32
2023-04-21T00:30:07.415Z,85.92
2023-04-21T00:32:37.916Z,85.56
2023-04-21T00:35:06.252Z,85.09
2023-04-21T00:37:34.815Z,85.41
2023-04-21T00:40:04.605Z,85.24
2023-04-21T00:42:32.768Z,85.28
2023-04-21T00:45:03.736Z,85.41
2023-04-21T00:47:33.152Z,85.13
2023-04-21T00:50:01.108Z,84.82
2023-04-21T00:55:52.778Z,83.93
2023-04-21T00:58:21.371Z,83.93
2023-04-21T01:00:49.602Z,83.85
2023-04-21T01:03:17.824Z,83.54
2023-04-21T01:05:46.805Z,84.16
2023-04-21T01:08:15.403Z,83.78
2023-04-21T01:10:43.582Z,84.01
2023-04-21T01:13:11.807Z,83.53
2023-04-21T01:15:40.236Z,83.44
2023-04-21T01:18:08.496Z,83.91
2023-04-21T01:20:36.915Z,84.42
2023-04-21T01:23:07.831Z,84.96
2023-04-21T01:25:36.597Z,85.15
2023-04-21T01:28:05.454Z,85.56
2023-04-21T01:30:33.556Z,85.98
2023-04-21T01:33:01.869Z,86.24
2023-04-21T01:35:31.337Z,86.70
2023-04-21T01:37:59.835Z,86.76
2023-04-21T01:40:28.211Z,87.24
2023-04-21T01:42:56.998Z,87.28
2023-04-21T01:45:25.312Z,87.87
2023-04-21T01:47:53.533Z,87.61
2023-04-21T01:50:21.787Z,87.97
2023-04-21T01:52:50.048Z,88.16
2023-04-21T01:55:18.234Z,88.26
2023-04-21T01:57:46.403Z,88.06
2023-04-21T02:00:15.217Z,88.07
2023-04-21T02:02:45.265Z,88.08
2023-04-21T02:05:14.770Z,88.00
2023-04-21T02:07:43.135Z,87.50
2023-04-21T02:10:11.730Z,87.49
2023-04-21T02:12:40.822Z,87.92
2023-04-21T02:15:11.678Z,87.74
2023-04-21T02:17:40.401Z,88.36
2023-04-21T02:20:09.582Z,87.78
2023-04-21T02:22:38.674Z,87.71
2023-04-21T02:25:07.224Z,87.95
2023-04-21T02:27:35.763Z,87.74
2023-04-21T02:30:04.984Z,87.60
2023-04-21T02:32:33.921Z,87.24
2023-04-21T02:35:02.083Z,87.74
2023-04-21T02:37:32.295Z,87.70
2023-04-21T02:40:00.443Z,87.53
2023-04-21T02:42:28.511Z,87.22
2023-04-21T02:44:56.934Z,87.44
2023-04-21T02:47:25.106Z,87.39
2023-04-21T02:49:53.195Z,87.24
2023-04-21T02:52:21.349Z,87.39
2023-04-21T02:54:50.235Z,87.18
2023-04-21T02:57:18.325Z,87.20
2023-04-21T02:59:46.625Z,86.58
2023-04-21T03:02:15.052Z,86.32
2023-04-21T03:04:43.294Z,86.47
2023-04-21T03:07:13.258Z,87.22
2023-04-21T03:09:41.513Z,87.00
2023-04-21T03:12:10.094Z,87.51
2023-04-21T03:14:38.804Z,87.69
2023-04-21T03:17:07.097Z,87.94
2023-04-21T03:19:35.987Z,88.06
2023-04-21T03:22:04.273Z,88.02
2023-04-21T03:24:33.126Z,88.49
2023-04-21T03:27:02.575Z,88.53
2023-04-21T03:29:30.988Z,88.87
2023-04-21T03:31:59.239Z,89.12
2023-04-21T03:34:27.905Z,89.23
2023-04-21T03:36:56.688Z,89.03
2023-04-21T03:39:25.228Z,89.09
2023-04-21T03:41:54.144Z,89.22
2023-04-21T03:44:22.443Z,88.92
2023-04-21T03:46:53.543Z,89.06
2023-04-21T03:49:24.314Z,88.96
2023-04-21T03:51:52.400Z,89.02
2023-04-21T03:54:20.709Z,88.86
2023-04-21T03:56:48.822Z,88.66
2023-04-21T03:59:17.086Z,88.38
2023-04-21T04:01:45.612Z,87.94
2023-04-21T04:04:14.294Z,87.93
2023-04-21T04:06:43.134Z,87.96
2023-04-21T04:09:11.308Z,87.78
2023-04-21T04:11:39.532Z,88.33
2023-04-21T04:14:07.718Z,88.27
2023-04-21T04:16:35.936Z,88.22
2023-04-21T04:19:04.289Z,88.18
2023-04-21T04:21:32.726Z,87.61
2023-04-21T04:24:02.375Z,88.10
2023-04-21T04:26:30.660Z,87.81
2023-04-21T04:29:00.470Z,87.98
2023-04-21T04:31:32.610Z,87.81
2023-04-21T04:34:01.461Z,87.73
2023-04-21T04:36:31.012Z,87.43
2023-04-21T04:38:59.713Z,87.22
2023-04-21T04:41:30.662Z,87.07
2023-04-21T04:44:00.957Z,87.47
2023-04-21T04:46:29.271Z,87.72
2023-04-21T04:48:57.493Z,87.58
2023-04-21T04:51:25.636Z,87.28
2023-04-21T04:56:55.661Z,87.06
2023-04-21T04:59:23.934Z,87.13
2023-04-21T05:01:52.763Z,85.75
2023-04-21T05:04:21.517Z,85.34
2023-04-21T05:06:50.257Z,85.87
2023-04-21T05:09:18.580Z,85.30
2023-04-21T05:11:46.828Z,84.47
2023-04-21T05:14:15.334Z,82.97
2023-04-21T05:16:44.042Z,81.37
2023-04-21T05:19:12.116Z,81.45
2023-04-21T05:21:40.831Z,81.43
2023-04-21T05:24:09.241Z,79.72
2023-04-21T05:26:37.365Z,78.88
2023-04-21T05:29:05.393Z,79.64
2023-04-21T05:31:33.730Z,79.06
2023-04-21T05:34:01.689Z,79.36
2023-04-21T05:36:30.601Z,78.94
2023-04-21T05:38:58.769Z,79.63
2023-04-21T05:41:26.866Z,79.32
2023-04-21T05:43:55.075Z,78.78
2023-04-21T05:46:23.280Z,77.36
2023-04-21T05:48:51.221Z,76.59
2023-04-21T05:51:19.514Z,75.28
2023-04-21T05:53:47.816Z,74.77
2023-04-21T05:56:16.232Z,73.61
2023-04-21T05:58:44.772Z,73.01
2023-04-21T06:01:13.583Z,73.08
2023-04-21T06:03:41.722Z,75.35
2023-04-21T06:06:11.654Z,74.00
2023-04-21T06:08:40.035Z,73.73
2023-04-21T06:11:08.062Z,72.69
2023-04-21T06:13:39.177Z,72.50
2023-04-21T06:16:08.764Z,72.42
2023-04-21T06:18:37.085Z,72.36
2023-04-21T06:21:05.694Z,70.53
2023-04-21T06:23:33.901Z,70.25
2023-04-21T06:26:05.000Z,70.50
2023-04-21T06:28:33.835Z,71.10
2023-04-21T06:31:02.723Z,71.25
2023-04-21T06:33:31.056Z,69.81
2023-04-21T06:35:59.726Z,69.12
2023-04-21T06:38:27.866Z,69.24
2023-04-21T06:40:55.879Z,68.49
2023-04-21T06:43:23.984Z,68.04
2023-04-21T06:45:52.011Z,67.25
2023-04-21T06:48:20.159Z,67.23
2023-04-21T06:57:29.256Z,67.70
2023-04-21T06:59:57.546Z,67.54
2023-04-21T07:02:25.911Z,66.31
2023-04-21T07:04:54.315Z,65.47
2023-04-21T07:07:22.840Z,65.97
2023-04-21T07:09:50.992Z,65.33
2023-04-21T07:12:19.036Z,64.13
2023-04-21T07:22:21.137Z,64.34
2023-04-21T07:24:49.741Z,64.77
2023-04-21T07:30:33.205Z,64.48
2023-04-21T07:33:01.429Z,63.69
2023-04-21T07:35:29.685Z,62.83
2023-04-21T07:37:57.869Z,60.52
2023-04-21T07:40:26.394Z,61.94
2023-04-21T07:42:54.487Z,60.48
2023-04-21T07:45:22.597Z,61.52
2023-04-21T07:47:50.805Z,61.14
2023-04-21T07:50:19.364Z,60.96
2023-04-21T07:52:48.193Z,59.58
2023-04-21T07:55:16.553Z,59.28
2023-04-21T07:57:44.972Z,59.14
2023-04-21T08:00:13.839Z,57.93
2023-04-21T08:02:42.342Z,58.53
2023-04-21T08:05:11.336Z,58.92
2023-04-21T08:07:39.884Z,58.30
2023-04-21T08:10:08.830Z,56.28
2023-04-21T08:12:36.949Z,55.44
2023-04-21T08:15:08.464Z,54.81
2023-04-21T08:17:37.622Z,56.00
2023-04-21T08:20:07.107Z,54.40
2023-04-21T08:22:36.674Z,53.77
2023-04-21T08:25:05.747Z,53.68
2023-04-21T08:27:33.896Z,53.49
2023-04-21T08:30:01.947Z,54.38
2023-04-21T08:32:30.353Z,54.82
2023-04-21T08:34:58.672Z,54.49
2023-04-21T08:37:26.726Z,54.34
2023-04-21T08:39:55.016Z,54.86
2023-04-21T08:42:23.201Z,52.81
2023-04-21T08:44:51.519Z,52.05
2023-04-21T08:47:20.650Z,52.07
2023-04-21T08:49:48.928Z,52.07
2023-04-21T08:55:40.682Z,51.59
2023-04-21T08:58:09.301Z,52.00
2023-04-21T09:00:37.467Z,50.76
2023-04-21T09:03:19.174Z,50.84
2023-04-21T09:06:05.673Z,50.14
2023-04-21T09:08:40.079Z,50.50
2023-04-21T09:11:08.157Z,51.17
2023-04-21T09:13:36.972Z,49.66
2023-04-21T09:16:08.573Z,49.58
2023-04-21T09:18:37.348Z,51.15
2023-04-21T09:21:10.340Z,51.33
2023-04-21T09:23:41.672Z,49.58
2023-04-21T09:26:10.354Z,49.27
2023-04-21T09:28:48.794Z,49.55
2023-04-21T09:31:21.591Z,48.10
2023-04-21T09:33:57.802Z,47.37
2023-04-21T09:36:31.096Z,48.77
2023-04-21T09:39:30.139Z,46.30
2023-04-21T09:41:51.126Z,47.52
2023-04-21T09:44:20.651Z,47.95
2023-04-21T09:46:51.252Z,46.64
2023-04-21T09:49:19.647Z,47.77
2023-04-21T09:56:53.794Z,46.93
2023-04-21T09:59:28.317Z,46.99
2023-04-21T10:01:56.685Z,48.67
2023-04-21T10:04:25.858Z,47.36
2023-04-21T10:06:54.710Z,47.54
2023-04-21T10:09:24.154Z,46.66
2023-04-21T10:11:52.492Z,46.83
2023-04-21T10:14:21.418Z,47.31
2023-04-21T10:17:17.368Z,46.77
2023-04-21T10:19:57.505Z,44.70
2023-04-21T10:22:32.892Z,45.12
2023-04-21T10:25:03.882Z,44.76
2023-04-21T10:27:41.272Z,43.81
2023-04-21T10:30:28.912Z,45.04
2023-04-21T10:33:04.389Z,42.93
2023-04-21T10:36:00.230Z,43.19
2023-04-21T10:38:42.038Z,40.70
2023-04-21T10:41:32.248Z,41.17
2023-04-21T10:44:01.979Z,40.55
2023-04-21T10:46:35.044Z,38.95
2023-04-21T10:49:12.053Z,38.18
2023-04-21T10:52:00.389Z,38.85
2023-04-21T10:54:41.766Z,39.90
2023-04-21T10:57:11.597Z,40.07
2023-04-21T10:59:39.911Z,40.41
2023-04-21T11:02:08.935Z,39.74
2023-04-21T11:04:40.305Z,38.03
2023-04-21T11:07:10.536Z,39.72
2023-04-21T11:09:39.722Z,38.10
2023-04-21T11:12:13.876Z,37.65
2023-04-21T11:14:43.658Z,37.84
2023-04-21T11:17:16.177Z,36.37
2023-04-21T11:19:53.920Z,36.16
2023-04-21T11:22:24.120Z,35.76
2023-04-21T11:24:56.264Z,35.34
2023-04-21T11:27:26.671Z,35.57
2023-04-21T11:29:54.937Z,34.96
2023-04-21T11:32:23.291Z,35.60
2023-04-21T11:34:51.580Z,35.07
2023-04-21T11:37:30.068Z,35.67
2023-04-21T11:40:01.742Z,36.02
2023-04-21T11:42:30.421Z,35.06
2023-04-21T11:44:59.252Z,33.72
2023-04-21T11:47:28.153Z,33.59
2023-04-21T11:49:58.444Z,34.32
2023-04-21T11:52:32.858Z,33.83
2023-04-21T11:55:12.263Z,33.68
2023-04-21T11:57:40.944Z,33.66
2023-04-21T12:00:15.364Z,33.03
2023-04-21T12:02:44.249Z,33.90
2023-04-21T12:05:13.274Z,34.02
2023-04-21T12:07:45.631Z,33.41
2023-04-21T12:10:19.120Z,33.87
2023-04-21T12:12:47.940Z,33.83
2023-04-21T12:15:20.507Z,33.88
2023-04-21T12:17:53.288Z,33.90
2023-04-21T12:20:23.287Z,32.77
2023-04-21T12:22:52.555Z,33.74
2023-04-21T12:25:20.943Z,34.02
2023-04-21T12:27:49.634Z,34.00
2023-04-21T12:30:18.230Z,33.93
2023-04-21T12:32:47.643Z,33.21
2023-04-21T12:35:16.037Z,32.86
2023-04-21T12:37:45.070Z,33.15
2023-04-21T12:40:13.371Z,33.78
2023-04-21T12:42:41.814Z,33.14
2023-04-21T12:45:10.739Z,33.41
2023-04-21T12:47:39.462Z,33.36
2023-04-21T12:50:08.709Z,34.12
2023-04-21T12:52:37.364Z,34.06
2023-04-21T12:55:06.568Z,35.04
2023-04-21T12:57:34.597Z,35.42
2023-04-21T13:00:04.438Z,36.33
2023-04-21T13:02:37.362Z,34.91
2023-04-21T13:05:07.011Z,34.57
2023-04-21T13:07:35.449Z,34.75
2023-04-21T13:10:06.723Z,33.80
2023-04-21T13:12:34.867Z,34.86
2023-04-21T13:15:03.357Z,35.95
2023-04-21T13:17:32.834Z,37.01
2023-04-21T13:20:01.142Z,36.89
2023-04-21T13:22:30.733Z,36.90
2023-04-21T13:24:58.896Z,36.98
2023-04-21T13:27:27.355Z,37.89
2023-04-21T13:29:55.696Z,37.58
2023-04-21T13:32:23.945Z,36.48
2023-04-21T13:34:54.002Z,34.87
2023-04-21T13:37:22.185Z,34.47
2023-04-21T13:39:50.763Z,35.36
2023-04-21T13:42:18.935Z,35.81
2023-04-21T13:44:47.314Z,36.32
2023-04-21T13:47:15.817Z,36.08
2023-04-21T13:49:44.018Z,37.26
2023-04-21T13:52:12.468Z,37.08
2023-04-21T13:54:40.753Z,35.88
2023-04-21T13:57:09.160Z,35.92
2023-04-21T13:59:37.498Z,36.06
2023-04-21T14:02:05.933Z,36.14
2023-04-21T14:04:34.511Z,35.69
2023-04-21T14:07:03.671Z,35.22
2023-04-21T14:09:33.197Z,35.31
2023-04-21T14:12:03.758Z,36.21
2023-04-21T14:14:38.544Z,36.14
2023-04-21T14:17:07.359Z,35.84
2023-04-21T14:19:36.777Z,34.89
2023-04-21T14:22:05.084Z,35.59
2023-04-21T14:24:34.080Z,36.14
2023-04-21T14:27:02.395Z,35.85
2023-04-21T14:29:30.904Z,35.43
2023-04-21T14:31:59.568Z,36.30
2023-04-21T14:34:27.679Z,35.40
2023-04-21T14:36:56.223Z,34.75
2023-04-21T14:39:24.389Z,34.83
2023-04-21T14:41:52.608Z,34.53
2023-04-21T14:44:20.905Z,34.88
2023-04-21T14:47:00.874Z,34.62
2023-04-21T14:49:40.099Z,35.36
2023-04-21T14:52:08.365Z,35.95
2023-04-21T14:54:37.595Z,35.89
2023-04-21T14:57:18.019Z,36.03
2023-04-21T14:59:50.249Z,36.72
2023-04-21T15:02:19.749Z,37.31
2023-04-21T15:04:47.953Z,37.18
2023-04-21T15:07:19.966Z,36.64
2023-04-21T15:09:52.295Z,36.93
2023-04-21T15:12:20.856Z,37.65
2023-04-21T15:14:49.131Z,37.82
2023-04-21T15:17:17.402Z,37.80
2023-04-21T15:19:45.826Z,38.45
2023-04-21T15:22:15.383Z,38.72
2023-04-21T15:24:43.828Z,39.42
2023-04-21T15:27:12.171Z,39.01
2023-04-21T15:29:40.511Z,38.56
2023-04-21T15:32:08.531Z,38.78
2023-04-21T15:42:14.466Z,41.03
2023-04-21T15:44:42.859Z,41.76
2023-04-21T15:47:11.581Z,42.11
2023-04-21T15:49:40.189Z,42.82
2023-04-21T15:52:09.055Z,42.60
2023-04-21T15:54:37.941Z,42.90
2023-04-21T15:57:06.680Z,43.33
2023-04-21T15:59:35.533Z,43.75
2023-04-21T16:02:04.406Z,44.27
2023-04-21T16:04:33.310Z,44.47
2023-04-21T16:07:01.705Z,44.97
2023-04-21T16:09:29.952Z,45.11
2023-04-21T16:11:58.343Z,45.40
2023-04-21T16:14:26.608Z,45.75
2023-04-21T16:16:54.772Z,46.48
2023-04-21T16:19:23.148Z,46.81
2023-04-21T16:21:51.192Z,47.13
2023-04-21T16:24:19.641Z,47.12
2023-04-21T16:26:47.861Z,46.91
2023-04-21T16:29:16.048Z,46.73
2023-04-21T16:31:44.433Z,47.05
2023-04-21T16:34:13.994Z,47.27
2023-04-21T16:36:42.187Z,46.84
2023-04-21T16:39:10.427Z,46.47
2023-04-21T16:41:38.617Z,46.38
2023-04-21T16:44:06.701Z,46.37
2023-04-21T16:46:35.183Z,46.29
2023-04-21T16:49:03.401Z,45.90
2023-04-21T16:51:32.226Z,45.91
2023-04-21T16:54:00.624Z,45.85
2023-04-21T16:56:28.892Z,45.92
2023-04-21T16:58:57.075Z,45.42
2023-04-21T17:01:25.219Z,45.04
2023-04-21T17:03:53.516Z,45.90
2023-04-21T17:06:22.029Z,46.10
2023-04-21T17:08:50.302Z,46.78
2023-04-21T17:11:18.466Z,46.95
2023-04-21T17:13:46.618Z,47.63
2023-04-21T17:16:15.015Z,48.22
2023-04-21T17:18:43.523Z,49.45
2023-04-21T17:21:12.634Z,50.12
2023-04-21T17:31:22.558Z,53.02
2023-04-21T17:33:53.339Z,53.80
2023-04-21T17:36:22.130Z,54.22
2023-04-21T17:38:50.563Z,53.70
2023-04-21T17:41:18.668Z,53.58
2023-04-21T17:43:47.255Z,54.47
2023-04-21T17:46:15.412Z,55.23
2023-04-21T17:48:43.780Z,55.76
2023-04-21T17:51:14.139Z,56.67
2023-04-21T17:53:42.628Z,57.34
2023-04-21T17:56:11.572Z,58.04
2023-04-21T17:58:41.436Z,58.51
2023-04-21T18:01:09.708Z,58.03
2023-04-21T18:03:41.445Z,57.39
2023-04-21T18:06:11.343Z,57.32
2023-04-21T18:08:39.539Z,56.53
2023-04-21T18:11:07.718Z,56.31
2023-04-21T18:13:36.335Z,56.24
2023-04-21T18:16:05.363Z,55.90
2023-04-21T18:18:33.500Z,55.90
2023-04-21T18:21:01.530Z,55.90
2023-04-21T18:23:30.531Z,55.84
2023-04-21T18:25:59.731Z,55.98
2023-04-21T18:28:29.499Z,55.68
2023-04-21T18:30:57.895Z,55.66
2023-04-21T18:33:25.964Z,55.76
2023-04-21T18:35:54.113Z,55.59
2023-04-21T18:38:22.568Z,55.87
2023-04-21T18:40:50.936Z,55.97
2023-04-21T18:43:19.319Z,56.09
2023-04-21T18:45:47.655Z,56.39
2023-04-21T18:48:16.257Z,56.73
2023-04-21T18:50:44.622Z,57.30
2023-04-21T18:53:12.816Z,57.66
2023-04-21T18:55:40.983Z,57.62
2023-04-21T18:58:09.106Z,57.99
2023-04-21T19:00:39.050Z,58.51
2023-04-21T19:03:07.838Z,58.68
2023-04-21T19:05:37.218Z,59.03
2023-04-21T19:08:06.040Z,59.79
2023-04-21T19:10:35.871Z,60.09
2023-04-21T19:13:04.437Z,60.56
2023-04-21T19:15:32.798Z,61.58
2023-04-21T19:18:01.296Z,61.93
2023-04-21T19:20:30.016Z,62.31
2023-04-21T19:22:58.310Z,62.82
2023-04-21T19:25:26.406Z,64.12
2023-04-21T19:27:54.800Z,65.46
2023-04-21T19:30:23.192Z,64.88
2023-04-21T19:32:51.871Z,63.93
2023-04-21T19:35:20.941Z,63.34
2023-04-21T19:37:49.374Z,63.42
2023-04-21T19:40:17.449Z,64.46
2023-04-21T19:42:45.596Z,65.88
2023-04-21T19:45:14.269Z,67.11
2023-04-21T19:48:37.223Z,67.86
2023-04-21T19:51:05.789Z,68.28
2023-04-21T19:53:34.332Z,68.94
2023-04-21T19:56:02.426Z,69.81
2023-04-21T19:58:40.328Z,70.43
2023-04-21T20:01:09.983Z,70.80
2023-04-21T20:03:38.726Z,71.06
2023-04-21T20:06:07.240Z,71.71
2023-04-21T20:08:36.094Z,72.52
2023-04-21T20:11:04.274Z,73.41
2023-04-21T20:13:32.616Z,73.60
2023-04-21T20:16:01.031Z,74.39
2023-04-21T20:18:29.881Z,75.29
2023-04-21T20:20:58.185Z,75.82
2023-04-21T20:23:26.628Z,76.50
2023-04-21T20:25:54.719Z,77.07
2023-04-21T20:28:22.989Z,77.22
2023-04-21T20:30:51.308Z,78.03
2023-04-21T20:33:19.595Z,78.66
2023-04-21T20:35:47.905Z,79.26
2023-04-21T20:38:16.445Z,79.44
2023-04-21T20:40:44.881Z,80.07
2023-04-21T20:43:13.967Z,81.07
2023-04-21T20:45:42.096Z,80.79
2023-04-21T20:48:10.696Z,80.86
2023-04-21T20:50:38.874Z,81.65
2023-04-21T20:53:08.919Z,82.24
2023-04-21T20:55:37.816Z,82.74
2023-04-21T20:58:07.537Z,83.63
2023-04-21T21:00:35.958Z,83.86
2023-04-21T21:03:09.997Z,83.72
2023-04-21T21:05:38.714Z,83.90
2023-04-21T21:08:07.434Z,84.02
2023-04-21T21:10:36.007Z,84.34
2023-04-21T21:13:04.084Z,84.37
2023-04-21T21:15:32.295Z,84.26
2023-04-21T21:18:00.328Z,84.85
2023-04-21T21:20:29.096Z,85.01
2023-04-21T21:22:57.578Z,84.11
2023-04-21T21:25:25.802Z,84.55
2023-04-21T21:27:53.952Z,85.31
2023-04-21T21:30:22.328Z,86.10
2023-04-21T21:32:51.095Z,86.01
2023-04-21T21:35:19.239Z,86.15
2023-04-21T21:37:47.344Z,86.60
2023-04-21T21:40:15.868Z,86.94
2023-04-21T21:42:44.019Z,87.24
2023-04-21T21:45:12.385Z,87.40
2023-04-21T21:47:43.958Z,87.76
2023-04-21T21:50:13.925Z,88.08
2023-04-21T21:52:42.330Z,88.85
2023-04-21T21:55:10.609Z,89.63
2023-04-21T21:57:38.997Z,90.28
2023-04-21T22:00:13.979Z,90.62
2023-04-21T22:02:42.812Z,90.77
2023-04-21T22:05:10.986Z,90.69
2023-04-21T22:07:43.157Z,91.27
2023-04-21T22:10:11.920Z,91.26
2023-04-21T22:12:41.105Z,91.63
2023-04-21T22:15:09.897Z,92.39
2023-04-21T22:17:38.294Z,92.58
2023-04-21T22:20:08.422Z,92.67
2023-04-21T22:22:36.686Z,93.05
2023-04-21T22:25:05.568Z,92.90
2023-04-21T22:27:34.282Z,93.08
2023-04-21T22:30:03.516Z,93.28
2023-04-21T22:32:32.686Z,93.59
2023-04-21T22:35:01.420Z,93.54
2023-04-21T22:37:30.418Z,93.85
2023-04-21T22:39:58.903Z,93.88
2023-04-21T22:42:27.179Z,93.57
2023-04-21T22:44:55.582Z,93.45
2023-04-21T22:47:23.916Z,93.81
2023-04-21T22:49:53.520Z,93.89
2023-04-21T22:52:22.090Z,94.43
2023-04-21T22:54:50.446Z,94.81
2023-04-21T22:57:18.745Z,95.08
2023-04-21T22:59:47.073Z,95.39
2023-04-21T23:02:15.592Z,95.68
2023-04-21T23:04:44.004Z,95.89
2023-04-21T23:07:12.086Z,96.32
2023-04-21T23:09:40.688Z,96.50
2023-04-21T23:19:51.894Z,97.17
2023-04-21T23:22:20.524Z,97.35
2023-04-21T23:24:48.666Z,97.62
2023-04-21T23:27:16.952Z,97.85
2023-04-21T23:29:45.161Z,97.92
2023-04-21T23:32:13.413Z,98.18
2023-04-21T23:34:41.526Z,98.34
2023-04-21T23:37:10.575Z,98.58
2023-04-21T23:39:38.984Z,98.85
2023-04-21T23:42:07.690Z,99.13
2023-04-21T23:44:37.444Z,99.58
2023-04-21T23:47:06.850Z,99.78
2023-04-21T23:49:36.095Z,99.81
2023-04-21T23:52:04.720Z,99.89
2023-04-21T23:54:33.352Z,100.00
2023-04-21T23:57:01.722Z,100.00
2023-04-21T23:59:29.927Z,100.00
